sensor_id;sensor_type;location;lat;lon;timestamp;P1;durP1;ratioP1;P2;durP2;ratioP2
31095;SDS011;17749;51.962;8.560;2024-02-14T06:03:23;6.38;;;3.80;;
31095;SDS011;17749;51.962;8.560;2024-02-14T06:05:59;8.43;;;4.43;;
31095;SDS011;17749;51.962;8.560;2024-02-14T06:08:26;9.00;;;4.47;;
31095;SDS011;17749;51.962;8.560;2024-02-14T06:10:56;9.48;;;4.10;;
31095;SDS011;17749;51.962;8.560;2024-02-14T06:13:23;8.55;;;4.18;;
31095;SDS011;17749;51.962;8.560;2024-02-14T06:15:50;9.85;;;4.45;;
31095;SDS011;17749;51.962;8.560;2024-02-14T06:18:24;10.45;;;4.40;;
31095;SDS011;17749;51.962;8.560;2024-02-14T06:20:51;8.10;;;4.35;;
31095;SDS011;17749;51.962;8.560;2024-02-14T06:23:19;8.10;;;5.53;;
31095;SDS011;17749;51.962;8.560;2024-02-14T06:25:47;7.95;;;4.82;;
31095;SDS011;17749;51.962;8.560;2024-02-14T06:28:14;8.70;;;4.43;;
31095;SDS011;17749;51.962;8.560;2024-02-14T06:30:46;8.60;;;4.50;;
31095;SDS011;17749;51.962;8.560;2024-02-14T06:33:13;7.80;;;4.65;;
31095;SDS011;17749;51.962;8.560;2024-02-14T06:35:43;11.00;;;5.50;;
31095;SDS011;17749;51.962;8.560;2024-02-14T06:38:11;10.27;;;4.90;;
31095;SDS011;17749;51.962;8.560;2024-02-14T06:40:38;8.35;;;4.43;;
31095;SDS011;17749;51.962;8.560;2024-02-14T06:43:08;8.13;;;5.28;;
31095;SDS011;17749;51.962;8.560;2024-02-14T06:45:35;11.65;;;5.75;;
31095;SDS011;17749;51.962;8.560;2024-02-14T06:48:02;10.20;;;6.03;;
31095;SDS011;17749;51.962;8.560;2024-02-14T06:50:29;12.90;;;6.70;;
31095;SDS011;17749;51.962;8.560;2024-02-14T06:52:56;11.75;;;6.95;;
31095;SDS011;17749;51.962;8.560;2024-02-14T06:55:27;11.32;;;6.15;;
31095;SDS011;17749;51.962;8.560;2024-02-14T06:57:59;10.90;;;6.80;;
31095;SDS011;17749;51.962;8.560;2024-02-14T07:00:29;12.60;;;5.95;;
31095;SDS011;17749;51.962;8.560;2024-02-14T07:02:56;12.15;;;7.05;;
31095;SDS011;17749;51.962;8.560;2024-02-14T07:05:23;10.20;;;6.82;;
31095;SDS011;17749;51.962;8.560;2024-02-14T07:07:50;16.42;;;7.72;;
31095;SDS011;17749;51.962;8.560;2024-02-14T07:10:18;14.75;;;7.93;;
31095;SDS011;17749;51.962;8.560;2024-02-14T07:12:45;16.13;;;8.40;;
31095;SDS011;17749;51.962;8.560;2024-02-14T07:15:12;13.65;;;7.38;;
31095;SDS011;17749;51.962;8.560;2024-02-14T07:17:47;15.52;;;8.38;;
31095;SDS011;17749;51.962;8.560;2024-02-14T07:20:14;17.77;;;8.70;;
31095;SDS011;17749;51.962;8.560;2024-02-14T07:22:54;12.35;;;7.70;;
31095;SDS011;17749;51.962;8.560;2024-02-14T07:27:51;15.43;;;7.47;;
31095;SDS011;17749;51.962;8.560;2024-02-14T07:30:26;12.18;;;6.85;;
31095;SDS011;17749;51.962;8.560;2024-02-14T07:32:54;13.52;;;8.40;;
31095;SDS011;17749;51.962;8.560;2024-02-14T07:35:20;13.68;;;8.20;;
31095;SDS011;17749;51.962;8.560;2024-02-14T07:37:47;14.88;;;8.40;;
31095;SDS011;17749;51.962;8.560;2024-02-14T07:40:14;13.02;;;8.55;;
31095;SDS011;17749;51.962;8.560;2024-02-14T07:42:44;14.38;;;8.73;;
31095;SDS011;17749;51.962;8.560;2024-02-14T07:45:10;14.18;;;8.48;;
31095;SDS011;17749;51.962;8.560;2024-02-14T07:47:38;14.07;;;7.75;;
31095;SDS011;17749;51.962;8.560;2024-02-14T07:50:06;15.25;;;7.97;;
31095;SDS011;17749;51.962;8.560;2024-02-14T07:52:34;15.20;;;7.82;;
31095;SDS011;17749;51.962;8.560;2024-02-14T07:55:02;12.90;;;7.40;;
31095;SDS011;17749;51.962;8.560;2024-02-14T07:57:29;13.55;;;7.80;;
31095;SDS011;17749;51.962;8.560;2024-02-14T07:59:56;14.07;;;7.57;;
31095;SDS011;17749;51.962;8.560;2024-02-14T08:02:23;13.70;;;8.02;;
31095;SDS011;17749;51.962;8.560;2024-02-14T08:04:49;15.32;;;9.15;;
31095;SDS011;17749;51.962;8.560;2024-02-14T08:07:18;13.15;;;8.27;;
31095;SDS011;17749;51.962;8.560;2024-02-14T08:09:45;13.52;;;7.90;;
31095;SDS011;17749;51.962;8.560;2024-02-14T08:12:12;12.88;;;7.90;;
31095;SDS011;17749;51.962;8.560;2024-02-14T08:14:39;12.18;;;8.43;;
31095;SDS011;17749;51.962;8.560;2024-02-14T08:17:06;14.57;;;8.23;;
31095;SDS011;17749;51.962;8.560;2024-02-14T08:19:32;15.18;;;8.35;;
31095;SDS011;17749;51.962;8.560;2024-02-14T08:21:59;12.18;;;7.38;;
31095;SDS011;17749;51.962;8.560;2024-02-14T08:24:27;14.52;;;8.57;;
31095;SDS011;17749;51.962;8.560;2024-02-14T08:26:54;14.40;;;8.85;;
31095;SDS011;17749;51.962;8.560;2024-02-14T08:29:21;16.02;;;8.63;;
31095;SDS011;17749;51.962;8.560;2024-02-14T08:31:48;14.38;;;8.25;;
31095;SDS011;17749;51.962;8.560;2024-02-14T08:34:15;12.02;;;7.78;;
31095;SDS011;17749;51.962;8.560;2024-02-14T08:36:43;14.15;;;7.75;;
31095;SDS011;17749;51.962;8.560;2024-02-14T08:39:10;12.30;;;8.02;;
31095;SDS011;17749;51.962;8.560;2024-02-14T08:41:37;14.23;;;8.80;;
31095;SDS011;17749;51.962;8.560;2024-02-14T08:44:05;13.80;;;8.38;;
31095;SDS011;17749;51.962;8.560;2024-02-14T08:46:32;12.57;;;7.40;;
31095;SDS011;17749;51.962;8.560;2024-02-14T08:49:02;11.48;;;7.20;;
31095;SDS011;17749;51.962;8.560;2024-02-14T08:51:29;14.65;;;7.63;;
31095;SDS011;17749;51.962;8.560;2024-02-14T08:53:56;13.32;;;7.53;;
31095;SDS011;17749;51.962;8.560;2024-02-14T08:56:26;11.40;;;7.00;;
31095;SDS011;17749;51.962;8.560;2024-02-14T08:58:54;10.68;;;6.93;;
31095;SDS011;17749;51.962;8.560;2024-02-14T09:01:21;11.00;;;7.00;;
31095;SDS011;17749;51.962;8.560;2024-02-14T09:03:48;11.70;;;7.45;;
31095;SDS011;17749;51.962;8.560;2024-02-14T09:06:16;10.55;;;6.93;;
31095;SDS011;17749;51.962;8.560;2024-02-14T09:08:48;10.60;;;6.55;;
31095;SDS011;17749;51.962;8.560;2024-02-14T09:11:17;15.35;;;7.93;;
31095;SDS011;17749;51.962;8.560;2024-02-14T09:13:44;13.57;;;7.22;;
31095;SDS011;17749;51.962;8.560;2024-02-14T09:16:14;10.13;;;6.60;;
31095;SDS011;17749;51.962;8.560;2024-02-14T09:23:44;10.27;;;6.38;;
31095;SDS011;17749;51.962;8.560;2024-02-14T09:26:11;11.93;;;6.97;;
31095;SDS011;17749;51.962;8.560;2024-02-14T09:28:42;13.52;;;7.18;;
31095;SDS011;17749;51.962;8.560;2024-02-14T09:31:09;11.73;;;7.55;;
31095;SDS011;17749;51.962;8.560;2024-02-14T09:33:37;11.45;;;7.18;;
31095;SDS011;17749;51.962;8.560;2024-02-14T09:36:06;11.55;;;7.72;;
31095;SDS011;17749;51.962;8.560;2024-02-14T09:38:33;11.93;;;7.55;;
31095;SDS011;17749;51.962;8.560;2024-02-14T09:44:03;12.25;;;7.72;;
31095;SDS011;17749;51.962;8.560;2024-02-14T09:46:30;11.45;;;7.57;;
31095;SDS011;17749;51.962;8.560;2024-02-14T09:49:01;14.77;;;8.60;;
31095;SDS011;17749;51.962;8.560;2024-02-14T09:51:30;13.32;;;7.80;;
31095;SDS011;17749;51.962;8.560;2024-02-14T09:53:59;14.82;;;8.70;;
31095;SDS011;17749;51.962;8.560;2024-02-14T09:56:30;14.65;;;9.13;;
31095;SDS011;17749;51.962;8.560;2024-02-14T09:58:58;20.25;;;9.50;;
31095;SDS011;17749;51.962;8.560;2024-02-14T10:01:29;15.07;;;9.35;;
31095;SDS011;17749;51.962;8.560;2024-02-14T10:03:55;12.63;;;8.23;;
31095;SDS011;17749;51.962;8.560;2024-02-14T10:06:22;22.90;;;9.50;;
31095;SDS011;17749;51.962;8.560;2024-02-14T10:08:50;17.30;;;9.30;;
31095;SDS011;17749;51.962;8.560;2024-02-14T10:11:32;16.52;;;9.57;;
31095;SDS011;17749;51.962;8.560;2024-02-14T10:14:00;17.77;;;9.85;;
31095;SDS011;17749;51.962;8.560;2024-02-14T10:16:31;18.23;;;9.88;;
31095;SDS011;17749;51.962;8.560;2024-02-14T10:18:58;13.77;;;9.07;;
31095;SDS011;17749;51.962;8.560;2024-02-14T10:21:25;16.75;;;9.98;;
31095;SDS011;17749;51.962;8.560;2024-02-14T10:23:55;18.85;;;9.27;;
31095;SDS011;17749;51.962;8.560;2024-02-14T10:26:24;14.45;;;8.82;;
31095;SDS011;17749;51.962;8.560;2024-02-14T10:28:51;15.98;;;8.60;;
31095;SDS011;17749;51.962;8.560;2024-02-14T10:31:18;15.02;;;9.05;;
31095;SDS011;17749;51.962;8.560;2024-02-14T10:33:45;18.67;;;10.38;;
31095;SDS011;17749;51.962;8.560;2024-02-14T10:36:12;15.32;;;9.10;;
31095;SDS011;17749;51.962;8.560;2024-02-14T10:38:40;14.10;;;9.10;;
31095;SDS011;17749;51.962;8.560;2024-02-14T10:41:08;15.60;;;9.90;;
31095;SDS011;17749;51.962;8.560;2024-02-14T10:43:36;17.73;;;10.38;;
31095;SDS011;17749;51.962;8.560;2024-02-14T10:46:08;15.77;;;9.80;;
31095;SDS011;17749;51.962;8.560;2024-02-14T10:48:37;17.40;;;10.38;;
31095;SDS011;17749;51.962;8.560;2024-02-14T10:53:33;13.45;;;8.90;;
31095;SDS011;17749;51.962;8.560;2024-02-14T10:56:01;16.23;;;8.88;;
31095;SDS011;17749;51.962;8.560;2024-02-14T10:58:29;17.75;;;9.68;;
31095;SDS011;17749;51.962;8.560;2024-02-14T11:00:58;15.50;;;9.20;;
31095;SDS011;17749;51.962;8.560;2024-02-14T11:03:25;15.35;;;9.35;;
31095;SDS011;17749;51.962;8.560;2024-02-14T11:05:55;15.73;;;8.98;;
31095;SDS011;17749;51.962;8.560;2024-02-14T11:08:31;13.18;;;8.18;;
31095;SDS011;17749;51.962;8.560;2024-02-14T11:10:59;16.60;;;10.10;;
31095;SDS011;17749;51.962;8.560;2024-02-14T11:13:30;12.77;;;8.40;;
31095;SDS011;17749;51.962;8.560;2024-02-14T11:16:00;12.40;;;8.30;;
31095;SDS011;17749;51.962;8.560;2024-02-14T11:18:28;15.73;;;8.90;;
31095;SDS011;17749;51.962;8.560;2024-02-14T11:21:04;14.18;;;8.98;;
31095;SDS011;17749;51.962;8.560;2024-02-14T11:23:31;14.77;;;9.13;;
31095;SDS011;17749;51.962;8.560;2024-02-14T11:26:05;14.15;;;7.47;;
31095;SDS011;17749;51.962;8.560;2024-02-14T11:28:36;11.23;;;7.72;;
31095;SDS011;17749;51.962;8.560;2024-02-14T11:31:07;14.57;;;8.48;;
31095;SDS011;17749;51.962;8.560;2024-02-14T11:33:36;11.93;;;7.70;;
31095;SDS011;17749;51.962;8.560;2024-02-14T11:36:09;13.18;;;7.70;;
31095;SDS011;17749;51.962;8.560;2024-02-14T11:38:37;10.90;;;7.32;;
31095;SDS011;17749;51.962;8.560;2024-02-14T11:41:07;12.75;;;7.43;;
31095;SDS011;17749;51.962;8.560;2024-02-14T11:43:35;11.70;;;7.77;;
31095;SDS011;17749;51.962;8.560;2024-02-14T11:46:02;12.10;;;7.13;;
31095;SDS011;17749;51.962;8.560;2024-02-14T11:48:31;11.93;;;7.88;;
31095;SDS011;17749;51.962;8.560;2024-02-14T11:50:59;13.45;;;9.05;;
31095;SDS011;17749;51.962;8.560;2024-02-14T11:53:26;14.65;;;7.78;;
31095;SDS011;17749;51.962;8.560;2024-02-14T11:55:55;13.65;;;7.57;;
31095;SDS011;17749;51.962;8.560;2024-02-14T11:58:23;10.50;;;7.43;;
31095;SDS011;17749;51.962;8.560;2024-02-14T12:00:50;11.05;;;6.97;;
31095;SDS011;17749;51.962;8.560;2024-02-14T12:03:21;12.63;;;8.43;;
31095;SDS011;17749;51.962;8.560;2024-02-14T12:05:50;10.15;;;7.30;;
31095;SDS011;17749;51.962;8.560;2024-02-14T12:08:19;9.88;;;6.85;;
31095;SDS011;17749;51.962;8.560;2024-02-14T12:10:48;12.70;;;7.85;;
31095;SDS011;17749;51.962;8.560;2024-02-14T12:13:20;35.17;;;20.80;;
31095;SDS011;17749;51.962;8.560;2024-02-14T12:15:48;18.48;;;11.70;;
31095;SDS011;17749;51.962;8.560;2024-02-14T12:18:18;18.02;;;11.88;;
31095;SDS011;17749;51.962;8.560;2024-02-14T12:20:47;23.00;;;15.05;;
31095;SDS011;17749;51.962;8.560;2024-02-14T12:23:22;17.50;;;12.95;;
31095;SDS011;17749;51.962;8.560;2024-02-14T12:25:50;15.20;;;9.70;;
31095;SDS011;17749;51.962;8.560;2024-02-14T12:28:17;18.17;;;8.80;;
31095;SDS011;17749;51.962;8.560;2024-02-14T12:30:46;12.00;;;8.73;;
31095;SDS011;17749;51.962;8.560;2024-02-14T12:33:16;13.50;;;7.95;;
31095;SDS011;17749;51.962;8.560;2024-02-14T12:35:46;12.85;;;8.35;;
31095;SDS011;17749;51.962;8.560;2024-02-14T12:38:15;12.13;;;8.10;;
31095;SDS011;17749;51.962;8.560;2024-02-14T12:40:43;8.43;;;6.75;;
31095;SDS011;17749;51.962;8.560;2024-02-14T12:43:14;9.13;;;7.30;;
31095;SDS011;17749;51.962;8.560;2024-02-14T12:45:45;9.57;;;6.82;;
31095;SDS011;17749;51.962;8.560;2024-02-14T12:48:12;8.60;;;6.72;;
31095;SDS011;17749;51.962;8.560;2024-02-14T12:50:41;10.27;;;7.57;;
31095;SDS011;17749;51.962;8.560;2024-02-14T12:53:15;12.65;;;7.88;;
31095;SDS011;17749;51.962;8.560;2024-02-14T12:55:43;21.52;;;10.43;;
31095;SDS011;17749;51.962;8.560;2024-02-14T12:58:10;25.88;;;15.57;;
31095;SDS011;17749;51.962;8.560;2024-02-14T13:00:37;12.52;;;8.00;;
31095;SDS011;17749;51.962;8.560;2024-02-14T13:03:04;12.32;;;8.02;;
31095;SDS011;17749;51.962;8.560;2024-02-14T13:05:32;9.60;;;7.00;;
31095;SDS011;17749;51.962;8.560;2024-02-14T13:08:00;8.57;;;7.22;;
31095;SDS011;17749;51.962;8.560;2024-02-14T13:10:28;8.65;;;7.28;;
31095;SDS011;17749;51.962;8.560;2024-02-14T13:12:56;10.23;;;7.35;;
31095;SDS011;17749;51.962;8.560;2024-02-14T13:15:26;10.50;;;7.55;;
31095;SDS011;17749;51.962;8.560;2024-02-14T13:17:53;9.88;;;7.90;;
31095;SDS011;17749;51.962;8.560;2024-02-14T13:20:21;7.00;;;5.90;;
31095;SDS011;17749;51.962;8.560;2024-02-14T13:22:48;7.90;;;5.43;;
31095;SDS011;17749;51.962;8.560;2024-02-14T13:25:16;7.55;;;6.07;;
31095;SDS011;17749;51.962;8.560;2024-02-14T13:27:44;9.98;;;6.47;;
31095;SDS011;17749;51.962;8.560;2024-02-14T13:30:11;10.07;;;5.68;;
31095;SDS011;17749;51.962;8.560;2024-02-14T13:32:39;9.30;;;5.72;;
31095;SDS011;17749;51.962;8.560;2024-02-14T13:35:06;22.95;;;8.35;;
31095;SDS011;17749;51.962;8.560;2024-02-14T13:37:33;11.45;;;6.88;;
31095;SDS011;17749;51.962;8.560;2024-02-14T13:40:02;15.47;;;7.33;;
31095;SDS011;17749;51.962;8.560;2024-02-14T13:42:31;12.35;;;7.43;;
31095;SDS011;17749;51.962;8.560;2024-02-14T13:44:58;10.32;;;6.07;;
31095;SDS011;17749;51.962;8.560;2024-02-14T13:47:25;9.85;;;6.20;;
31095;SDS011;17749;51.962;8.560;2024-02-14T13:49:52;7.05;;;5.15;;
31095;SDS011;17749;51.962;8.560;2024-02-14T13:52:19;11.45;;;5.80;;
31095;SDS011;17749;51.962;8.560;2024-02-14T13:54:47;12.73;;;5.85;;
31095;SDS011;17749;51.962;8.560;2024-02-14T13:57:14;15.68;;;7.93;;
31095;SDS011;17749;51.962;8.560;2024-02-14T13:59:45;12.38;;;7.60;;
31095;SDS011;17749;51.962;8.560;2024-02-14T14:02:13;8.90;;;6.82;;
31095;SDS011;17749;51.962;8.560;2024-02-14T14:04:41;10.65;;;5.88;;
31095;SDS011;17749;51.962;8.560;2024-02-14T14:07:07;13.32;;;6.45;;
31095;SDS011;17749;51.962;8.560;2024-02-14T14:09:35;6.32;;;4.63;;
31095;SDS011;17749;51.962;8.560;2024-02-14T14:12:02;8.93;;;4.95;;
31095;SDS011;17749;51.962;8.560;2024-02-14T14:14:29;9.80;;;4.20;;
31095;SDS011;17749;51.962;8.560;2024-02-14T14:16:56;6.43;;;4.03;;
31095;SDS011;17749;51.962;8.560;2024-02-14T14:19:24;6.15;;;4.78;;
31095;SDS011;17749;51.962;8.560;2024-02-14T14:21:52;7.35;;;3.72;;
31095;SDS011;17749;51.962;8.560;2024-02-14T14:24:18;5.30;;;3.85;;
31095;SDS011;17749;51.962;8.560;2024-02-14T14:26:46;7.95;;;4.88;;
31095;SDS011;17749;51.962;8.560;2024-02-14T14:29:13;7.93;;;4.68;;
31095;SDS011;17749;51.962;8.560;2024-02-14T14:31:40;9.50;;;4.25;;
31095;SDS011;17749;51.962;8.560;2024-02-14T14:34:08;7.80;;;4.57;;
31095;SDS011;17749;51.962;8.560;2024-02-14T14:36:35;6.82;;;4.50;;
31095;SDS011;17749;51.962;8.560;2024-02-14T14:39:04;8.23;;;4.68;;
31095;SDS011;17749;51.962;8.560;2024-02-14T14:41:31;7.25;;;3.88;;
31095;SDS011;17749;51.962;8.560;2024-02-14T14:43:58;7.72;;;4.32;;
31095;SDS011;17749;51.962;8.560;2024-02-14T14:46:25;6.63;;;4.43;;
31095;SDS011;17749;51.962;8.560;2024-02-14T14:48:52;7.78;;;5.00;;
31095;SDS011;17749;51.962;8.560;2024-02-14T14:51:19;6.70;;;4.30;;
31095;SDS011;17749;51.962;8.560;2024-02-14T14:53:47;8.55;;;4.80;;
31095;SDS011;17749;51.962;8.560;2024-02-14T14:56:14;7.53;;;4.50;;
31095;SDS011;17749;51.962;8.560;2024-02-14T14:58:41;11.00;;;5.43;;
31095;SDS011;17749;51.962;8.560;2024-02-14T15:01:09;13.27;;;7.20;;
31095;SDS011;17749;51.962;8.560;2024-02-14T15:03:36;6.32;;;4.22;;
31095;SDS011;17749;51.962;8.560;2024-02-14T15:06:04;16.83;;;7.93;;
31095;SDS011;17749;51.962;8.560;2024-02-14T15:08:31;8.02;;;5.00;;
31095;SDS011;17749;51.962;8.560;2024-02-14T15:10:59;8.10;;;4.70;;
31095;SDS011;17749;51.962;8.560;2024-02-14T15:13:26;8.93;;;4.35;;
31095;SDS011;17749;51.962;8.560;2024-02-14T15:15:54;5.80;;;3.78;;
31095;SDS011;17749;51.962;8.560;2024-02-14T15:18:21;5.30;;;3.25;;
31095;SDS011;17749;51.962;8.560;2024-02-14T15:20:48;5.05;;;3.38;;
31095;SDS011;17749;51.962;8.560;2024-02-14T15:23:15;5.60;;;3.15;;
31095;SDS011;17749;51.962;8.560;2024-02-14T15:25:42;4.88;;;3.00;;
31095;SDS011;17749;51.962;8.560;2024-02-14T15:28:09;5.47;;;3.25;;
31095;SDS011;17749;51.962;8.560;2024-02-14T15:30:44;5.50;;;3.28;;
31095;SDS011;17749;51.962;8.560;2024-02-14T15:33:30;6.78;;;3.85;;
31095;SDS011;17749;51.962;8.560;2024-02-14T15:35:58;10.00;;;5.88;;
31095;SDS011;17749;51.962;8.560;2024-02-14T15:38:28;6.20;;;4.28;;
31095;SDS011;17749;51.962;8.560;2024-02-14T15:40:55;5.78;;;3.60;;
31095;SDS011;17749;51.962;8.560;2024-02-14T15:43:28;7.32;;;4.70;;
31095;SDS011;17749;51.962;8.560;2024-02-14T15:45:55;9.68;;;5.40;;
31095;SDS011;17749;51.962;8.560;2024-02-14T15:48:24;7.43;;;4.25;;
31095;SDS011;17749;51.962;8.560;2024-02-14T15:50:53;4.97;;;3.33;;
31095;SDS011;17749;51.962;8.560;2024-02-14T15:53:21;6.13;;;3.25;;
31095;SDS011;17749;51.962;8.560;2024-02-14T15:55:48;6.50;;;3.28;;
31095;SDS011;17749;51.962;8.560;2024-02-14T15:58:17;8.55;;;4.45;;
31095;SDS011;17749;51.962;8.560;2024-02-14T16:00:45;8.20;;;5.68;;
31095;SDS011;17749;51.962;8.560;2024-02-14T16:03:12;6.75;;;4.80;;
31095;SDS011;17749;51.962;8.560;2024-02-14T16:05:39;9.00;;;5.15;;
31095;SDS011;17749;51.962;8.560;2024-02-14T16:08:07;7.63;;;4.65;;
31095;SDS011;17749;51.962;8.560;2024-02-14T16:10:34;6.75;;;3.78;;
31095;SDS011;17749;51.962;8.560;2024-02-14T16:13:01;6.18;;;3.38;;
31095;SDS011;17749;51.962;8.560;2024-02-14T16:15:29;6.10;;;4.13;;
31095;SDS011;17749;51.962;8.560;2024-02-14T16:17:56;7.63;;;3.78;;
31095;SDS011;17749;51.962;8.560;2024-02-14T16:20:24;5.35;;;3.22;;
31095;SDS011;17749;51.962;8.560;2024-02-14T16:22:51;6.53;;;3.60;;
31095;SDS011;17749;51.962;8.560;2024-02-14T16:25:18;6.30;;;3.78;;
31095;SDS011;17749;51.962;8.560;2024-02-14T16:27:46;7.55;;;4.20;;
31095;SDS011;17749;51.962;8.560;2024-02-14T16:30:13;8.13;;;3.42;;
31095;SDS011;17749;51.962;8.560;2024-02-14T16:32:42;5.13;;;3.17;;
31095;SDS011;17749;51.962;8.560;2024-02-14T16:35:11;4.82;;;3.28;;
31095;SDS011;17749;51.962;8.560;2024-02-14T16:37:38;6.32;;;3.50;;
31095;SDS011;17749;51.962;8.560;2024-02-14T16:40:05;7.07;;;3.90;;
31095;SDS011;17749;51.962;8.560;2024-02-14T16:42:34;9.30;;;4.25;;
31095;SDS011;17749;51.962;8.560;2024-02-14T16:45:01;6.90;;;4.32;;
31095;SDS011;17749;51.962;8.560;2024-02-14T16:47:30;15.88;;;5.95;;
31095;SDS011;17749;51.962;8.560;2024-02-14T16:49:58;14.60;;;8.05;;
31095;SDS011;17749;51.962;8.560;2024-02-14T16:52:26;16.25;;;9.13;;
31095;SDS011;17749;51.962;8.560;2024-02-14T16:54:53;20.35;;;10.32;;
31095;SDS011;17749;51.962;8.560;2024-02-14T16:57:20;34.22;;;16.25;;
31095;SDS011;17749;51.962;8.560;2024-02-14T16:59:47;21.75;;;9.40;;
31095;SDS011;17749;51.962;8.560;2024-02-14T17:02:15;17.63;;;7.85;;
31095;SDS011;17749;51.962;8.560;2024-02-14T17:04:42;19.95;;;9.85;;
31095;SDS011;17749;51.962;8.560;2024-02-14T17:07:10;21.33;;;10.38;;
31095;SDS011;17749;51.962;8.560;2024-02-14T17:09:43;14.05;;;7.53;;
31095;SDS011;17749;51.962;8.560;2024-02-14T17:12:11;8.45;;;4.40;;
31095;SDS011;17749;51.962;8.560;2024-02-14T17:14:39;9.20;;;4.63;;
31095;SDS011;17749;51.962;8.560;2024-02-14T17:17:09;6.88;;;4.38;;
31095;SDS011;17749;51.962;8.560;2024-02-14T17:19:37;8.02;;;4.53;;
31095;SDS011;17749;51.962;8.560;2024-02-14T17:22:04;9.02;;;4.95;;
31095;SDS011;17749;51.962;8.560;2024-02-14T17:24:46;8.98;;;4.47;;
31095;SDS011;17749;51.962;8.560;2024-02-14T17:27:14;6.85;;;4.60;;
31095;SDS011;17749;51.962;8.560;2024-02-14T17:29:45;11.77;;;5.20;;
31095;SDS011;17749;51.962;8.560;2024-02-14T17:32:14;8.30;;;6.07;;
31095;SDS011;17749;51.962;8.560;2024-02-14T17:34:57;8.45;;;5.35;;
31095;SDS011;17749;51.962;8.560;2024-02-14T17:37:25;10.18;;;5.93;;
31095;SDS011;17749;51.962;8.560;2024-02-14T17:39:53;10.90;;;7.18;;
31095;SDS011;17749;51.962;8.560;2024-02-14T17:42:21;32.60;;;16.15;;
31095;SDS011;17749;51.962;8.560;2024-02-14T17:44:48;66.45;;;32.15;;
31095;SDS011;17749;51.962;8.560;2024-02-14T17:47:16;10.63;;;7.03;;
31095;SDS011;17749;51.962;8.560;2024-02-14T17:49:44;9.00;;;5.65;;
31095;SDS011;17749;51.962;8.560;2024-02-14T17:52:12;9.43;;;6.47;;
31095;SDS011;17749;51.962;8.560;2024-02-14T17:54:46;9.75;;;6.32;;
31095;SDS011;17749;51.962;8.560;2024-02-14T17:57:14;19.73;;;9.65;;
31095;SDS011;17749;51.962;8.560;2024-02-14T17:59:43;24.08;;;12.07;;
31095;SDS011;17749;51.962;8.560;2024-02-14T18:02:11;15.90;;;8.38;;
31095;SDS011;17749;51.962;8.560;2024-02-14T18:04:38;20.77;;;13.68;;
31095;SDS011;17749;51.962;8.560;2024-02-14T18:07:06;26.27;;;15.15;;
31095;SDS011;17749;51.962;8.560;2024-02-14T18:09:33;19.95;;;11.30;;
31095;SDS011;17749;51.962;8.560;2024-02-14T18:12:00;20.58;;;12.73;;
31095;SDS011;17749;51.962;8.560;2024-02-14T18:14:30;15.02;;;10.15;;
31095;SDS011;17749;51.962;8.560;2024-02-14T18:16:59;9.77;;;8.18;;
31095;SDS011;17749;51.962;8.560;2024-02-14T18:19:25;12.10;;;8.45;;
31095;SDS011;17749;51.962;8.560;2024-02-14T18:21:53;13.50;;;9.13;;
31095;SDS011;17749;51.962;8.560;2024-02-14T18:24:20;11.55;;;8.30;;
31095;SDS011;17749;51.962;8.560;2024-02-14T18:26:47;16.63;;;8.15;;
31095;SDS011;17749;51.962;8.560;2024-02-14T18:29:15;10.93;;;7.55;;
31095;SDS011;17749;51.962;8.560;2024-02-14T18:31:42;11.45;;;7.22;;
31095;SDS011;17749;51.962;8.560;2024-02-14T18:34:09;11.50;;;7.90;;
31095;SDS011;17749;51.962;8.560;2024-02-14T18:36:37;9.50;;;6.93;;
31095;SDS011;17749;51.962;8.560;2024-02-14T18:39:04;9.98;;;7.18;;
31095;SDS011;17749;51.962;8.560;2024-02-14T18:41:31;12.48;;;7.28;;
31095;SDS011;17749;51.962;8.560;2024-02-14T18:44:01;10.40;;;6.57;;
31095;SDS011;17749;51.962;8.560;2024-02-14T18:46:30;13.02;;;6.88;;
31095;SDS011;17749;51.962;8.560;2024-02-14T18:48:58;14.40;;;6.75;;
31095;SDS011;17749;51.962;8.560;2024-02-14T18:51:26;9.18;;;5.95;;
31095;SDS011;17749;51.962;8.560;2024-02-14T18:53:53;7.70;;;5.47;;
31095;SDS011;17749;51.962;8.560;2024-02-14T18:56:20;9.60;;;6.10;;
31095;SDS011;17749;51.962;8.560;2024-02-14T18:58:48;7.18;;;5.20;;
31095;SDS011;17749;51.962;8.560;2024-02-14T19:01:22;12.55;;;7.85;;
31095;SDS011;17749;51.962;8.560;2024-02-14T19:03:53;5.90;;;4.28;;
31095;SDS011;17749;51.962;8.560;2024-02-14T19:06:21;9.23;;;4.82;;
31095;SDS011;17749;51.962;8.560;2024-02-14T19:08:49;9.33;;;4.70;;
31095;SDS011;17749;51.962;8.560;2024-02-14T19:11:18;7.25;;;5.40;;
31095;SDS011;17749;51.962;8.560;2024-02-14T19:13:45;7.75;;;4.97;;
31095;SDS011;17749;51.962;8.560;2024-02-14T19:16:12;8.73;;;3.95;;
31095;SDS011;17749;51.962;8.560;2024-02-14T19:18:54;7.00;;;4.97;;
31095;SDS011;17749;51.962;8.560;2024-02-14T19:21:22;7.72;;;5.00;;
31095;SDS011;17749;51.962;8.560;2024-02-14T19:23:49;6.80;;;4.55;;
31095;SDS011;17749;51.962;8.560;2024-02-14T19:26:16;7.60;;;4.90;;
31095;SDS011;17749;51.962;8.560;2024-02-14T19:28:46;8.35;;;4.60;;
31095;SDS011;17749;51.962;8.560;2024-02-14T19:31:13;7.95;;;4.60;;
31095;SDS011;17749;51.962;8.560;2024-02-14T19:33:40;6.53;;;4.65;;
31095;SDS011;17749;51.962;8.560;2024-02-14T19:36:09;9.93;;;5.95;;
31095;SDS011;17749;51.962;8.560;2024-02-14T19:38:36;9.23;;;5.30;;
31095;SDS011;17749;51.962;8.560;2024-02-14T19:41:04;14.60;;;6.90;;
31095;SDS011;17749;51.962;8.560;2024-02-14T19:43:31;11.25;;;5.95;;
31095;SDS011;17749;51.962;8.560;2024-02-14T19:46:06;12.50;;;7.40;;
31095;SDS011;17749;51.962;8.560;2024-02-14T19:48:33;8.30;;;5.25;;
31095;SDS011;17749;51.962;8.560;2024-02-14T19:51:01;10.20;;;6.82;;
31095;SDS011;17749;51.962;8.560;2024-02-14T19:53:30;8.73;;;5.78;;
31095;SDS011;17749;51.962;8.560;2024-02-14T19:55:58;11.85;;;6.78;;
31095;SDS011;17749;51.962;8.560;2024-02-14T19:58:25;11.55;;;6.28;;
31095;SDS011;17749;51.962;8.560;2024-02-14T20:00:53;10.52;;;6.80;;
31095;SDS011;17749;51.962;8.560;2024-02-14T20:03:20;9.95;;;6.30;;
31095;SDS011;17749;51.962;8.560;2024-02-14T20:05:47;12.02;;;7.53;;
31095;SDS011;17749;51.962;8.560;2024-02-14T20:08:15;12.80;;;8.10;;
31095;SDS011;17749;51.962;8.560;2024-02-14T20:10:44;11.70;;;7.82;;
31095;SDS011;17749;51.962;8.560;2024-02-14T20:13:12;16.17;;;9.43;;
31095;SDS011;17749;51.962;8.560;2024-02-14T20:15:39;12.30;;;7.60;;
31095;SDS011;17749;51.962;8.560;2024-02-14T20:18:06;14.07;;;9.02;;
31095;SDS011;17749;51.962;8.560;2024-02-14T20:20:33;14.02;;;8.43;;
31095;SDS011;17749;51.962;8.560;2024-02-14T20:23:00;15.07;;;9.15;;
31095;SDS011;17749;51.962;8.560;2024-02-14T20:25:27;16.63;;;10.25;;
31095;SDS011;17749;51.962;8.560;2024-02-14T20:27:54;14.77;;;7.70;;
31095;SDS011;17749;51.962;8.560;2024-02-14T20:30:21;17.40;;;9.43;;
31095;SDS011;17749;51.962;8.560;2024-02-14T20:32:55;18.05;;;9.40;;
31095;SDS011;17749;51.962;8.560;2024-02-14T20:35:23;18.67;;;9.50;;
31095;SDS011;17749;51.962;8.560;2024-02-14T20:37:51;17.95;;;10.50;;
31095;SDS011;17749;51.962;8.560;2024-02-14T20:40:18;17.90;;;9.25;;
31095;SDS011;17749;51.962;8.560;2024-02-14T20:42:45;16.60;;;9.82;;
31095;SDS011;17749;51.962;8.560;2024-02-14T20:45:12;19.08;;;10.13;;
31095;SDS011;17749;51.962;8.560;2024-02-14T20:47:39;21.48;;;11.15;;
31095;SDS011;17749;51.962;8.560;2024-02-14T20:50:09;19.48;;;11.30;;
31095;SDS011;17749;51.962;8.560;2024-02-14T20:52:38;19.85;;;11.20;;
31095;SDS011;17749;51.962;8.560;2024-02-14T20:55:05;18.20;;;11.38;;
31095;SDS011;17749;51.962;8.560;2024-02-14T20:57:34;21.98;;;11.52;;
31095;SDS011;17749;51.962;8.560;2024-02-14T21:00:01;17.38;;;10.43;;